Terminal Aerodrome Forecast
Issued by NWS Mt. Holly, NJ

Home | Current Version | Previous Version | Text Only | Print | Product List | Glossary On
Versions: 1 2 3 4 5 6 7 8 9 10 11 12 13 14 15 16 17 18 19 20 21 22 23
000
FTUS41 KPHI 240106 AAA
TAFTTN
TAF AMD
KTTN 240106Z 2401/2424 05018G28KT 6SM -RA BR OVC015
      TEMPO 2401/2404 3SM RA OVC008
     FM240400 01016G26KT 3SM -RA BR OVC007
     FM241700 34014G24KT P6SM OVC015
     FM242300 32010KT P6SM OVC030=

USA.gov is the U.S. government's official web portal to all federal, state and local government web resources and services.